Time;durP1;ratioP1;P1;durP2;ratioP2;P2;SDS_P1;SDS_P2;PMS_P1;PMS_P2;Temp;Humidity;BMP_temperature;BMP_pressure;BME280_temperature;BME280_humidity;BME280_pressure;Samples;Min_cycle;Max_cycle;Signal;HPM_P1;HPM_P2
2023/06/30 00:01:37;;;;;;;36.08;20.25;;;;;;;;;;4969711;28;20035;-78
2023/06/30 00:04:02;;;;;;;36.13;20.77;;;;;;;;;;4975138;28;20058;-77
2023/06/30 00:06:29;;;;;;;36.00;20.08;;;;;;;;;;4969023;28;20074;-78
2023/06/30 00:08:55;;;;;;;33.58;20.23;;;;;;;;;;4973776;28;20105;-77
2023/06/30 00:11:23;;;;;;;36.53;19.60;;;;;;;;;;4974914;28;20446;-77
2023/06/30 00:13:52;;;;;;;35.17;20.33;;;;;;;;;;4973461;28;20051;-79
2023/06/30 00:16:18;;;;;;;38.38;20.23;;;;;;;;;;4978773;28;20031;-78
2023/06/30 00:18:43;;;;;;;37.50;20.58;;;;;;;;;;4975942;28;20041;-79
2023/06/30 00:21:09;;;;;;;39.45;21.27;;;;;;;;;;4976191;28;20039;-78
2023/06/30 00:23:34;;;;;;;36.63;19.83;;;;;;;;;;4976113;28;20026;-78
2023/06/30 00:26:01;;;;;;;39.88;21.65;;;;;;;;;;4977753;28;20035;-78
2023/06/30 00:28:26;;;;;;;44.05;23.30;;;;;;;;;;4978674;28;20064;-78
2023/06/30 00:30:51;;;;;;;43.40;24.42;;;;;;;;;;4974094;28;20039;-77
2023/06/30 00:33:17;;;;;;;35.25;21.20;;;;;;;;;;4977491;28;20045;-78
2023/06/30 00:35:42;;;;;;;37.95;22.67;;;;;;;;;;4974883;28;20027;-78
2023/06/30 00:38:07;;;;;;;38.53;21.77;;;;;;;;;;4973433;28;20070;-78
2023/06/30 00:40:33;;;;;;;40.45;21.75;;;;;;;;;;4973063;28;20117;-78
2023/06/30 00:43:00;;;;;;;42.35;23.30;;;;;;;;;;4974297;28;20034;-78
2023/06/30 00:45:26;;;;;;;40.63;23.27;;;;;;;;;;4968199;28;20031;-78
2023/06/30 00:47:51;;;;;;;44.50;24.58;;;;;;;;;;4976545;28;20038;-77
2023/06/30 00:50:16;;;;;;;44.35;24.08;;;;;;;;;;4977520;28;20092;-78
2023/06/30 00:52:44;;;;;;;43.17;22.95;;;;;;;;;;4973321;28;20556;-78
2023/06/30 00:55:11;;;;;;;41.17;23.08;;;;;;;;;;4983147;28;20445;-78
2023/06/30 00:57:36;;;;;;;41.80;22.98;;;;;;;;;;4975240;28;20034;-77
2023/06/30 01:00:07;;;;;;;39.85;22.23;;;;;;;;;;4981824;28;20136;-78
2023/06/30 01:02:35;;;;;;;36.38;21.65;;;;;;;;;;4980448;28;20329;-77
2023/06/30 01:05:11;;;;;;;36.78;20.50;;;;;;;;;;4977747;28;20057;-78
2023/06/30 01:07:50;;;;;;;36.80;21.08;;;;;;;;;;4972143;28;20038;-79
2023/06/30 01:10:21;;;;;;;38.97;21.92;;;;;;;;;;4983106;28;20030;-78
2023/06/30 01:12:47;;;;;;;38.78;21.85;;;;;;;;;;4981642;28;20125;-78
2023/06/30 01:15:14;;;;;;;39.05;21.63;;;;;;;;;;4977844;28;20027;-78
2023/06/30 01:17:46;;;;;;;39.58;20.85;;;;;;;;;;4983774;28;20092;-78
2023/06/30 01:20:13;;;;;;;38.20;21.17;;;;;;;;;;4980062;28;20035;-78
2023/06/30 01:22:48;;;;;;;41.03;20.88;;;;;;;;;;4978651;28;20371;-77
2023/06/30 01:25:20;;;;;;;41.80;23.45;;;;;;;;;;4978803;28;20050;-78
2023/06/30 01:27:45;;;;;;;43.88;23.05;;;;;;;;;;4978955;28;20047;-78
2023/06/30 01:30:11;;;;;;;39.85;22.60;;;;;;;;;;4975786;28;20125;-77
2023/06/30 01:32:37;;;;;;;41.25;22.73;;;;;;;;;;4971478;28;20022;-78
2023/06/30 01:35:03;;;;;;;37.33;22.55;;;;;;;;;;4970463;28;20050;-77
2023/06/30 01:37:28;;;;;;;42.47;23.58;;;;;;;;;;4972172;28;20039;-77
2023/06/30 01:39:54;;;;;;;39.85;22.50;;;;;;;;;;4971685;28;20046;-77
2023/06/30 01:42:19;;;;;;;41.53;22.85;;;;;;;;;;4974966;28;20022;-77
2023/06/30 01:44:46;;;;;;;42.80;22.15;;;;;;;;;;4966249;28;20062;-77
2023/06/30 01:47:11;;;;;;;41.42;23.17;;;;;;;;;;4969353;28;20031;-76
2023/06/30 01:49:38;;;;;;;46.92;23.15;;;;;;;;;;4969704;28;20053;-76
2023/06/30 01:52:04;;;;;;;46.22;23.65;;;;;;;;;;4972054;28;20474;-76
2023/06/30 01:54:29;;;;;;;50.47;25.13;;;;;;;;;;4976294;28;20038;-76
2023/06/30 01:56:55;;;;;;;46.67;23.60;;;;;;;;;;4974106;28;20038;-76
2023/06/30 01:59:20;;;;;;;44.38;23.88;;;;;;;;;;4973503;28;20174;-76
2023/06/30 02:01:46;;;;;;;47.70;24.50;;;;;;;;;;4971678;28;20045;-77
2023/06/30 02:04:12;;;;;;;46.42;23.38;;;;;;;;;;4973642;28;20046;-77
2023/06/30 02:06:37;;;;;;;48.03;22.95;;;;;;;;;;4969506;28;20043;-77
2023/06/30 02:09:03;;;;;;;45.17;23.20;;;;;;;;;;4978417;28;20434;-76
2023/06/30 02:11:28;;;;;;;42.80;23.25;;;;;;;;;;4976113;28;20030;-77
2023/06/30 02:13:53;;;;;;;40.00;22.08;;;;;;;;;;4974046;28;20039;-77
2023/06/30 02:16:18;;;;;;;40.45;21.02;;;;;;;;;;4976786;28;20046;-77
2023/06/30 02:18:44;;;;;;;37.88;21.90;;;;;;;;;;4979174;28;20031;-77
2023/06/30 02:21:09;;;;;;;42.28;22.20;;;;;;;;;;4977760;28;20042;-77
2023/06/30 02:23:34;;;;;;;40.75;22.98;;;;;;;;;;4975103;28;20018;-76
2023/06/30 02:26:00;;;;;;;47.13;22.50;;;;;;;;;;4977654;28;20599;-77
2023/06/30 02:28:25;;;;;;;40.00;22.05;;;;;;;;;;4984946;28;20089;-77
2023/06/30 02:30:50;;;;;;;44.30;22.75;;;;;;;;;;4982002;28;20498;-77
2023/06/30 02:33:16;;;;;;;42.47;23.02;;;;;;;;;;4969924;28;20401;-77
2023/06/30 02:35:42;;;;;;;41.85;22.23;;;;;;;;;;4968943;28;20054;-77
2023/06/30 02:38:07;;;;;;;39.95;21.23;;;;;;;;;;4974707;28;20050;-77
2023/06/30 02:40:33;;;;;;;36.83;20.70;;;;;;;;;;4977191;28;20507;-77
2023/06/30 02:42:59;;;;;;;37.20;21.58;;;;;;;;;;4973917;28;20036;-77
2023/06/30 02:45:24;;;;;;;44.25;22.33;;;;;;;;;;4969212;28;20043;-77
2023/06/30 02:47:49;;;;;;;39.40;22.73;;;;;;;;;;4971375;28;20043;-77
2023/06/30 02:50:15;;;;;;;44.92;24.20;;;;;;;;;;4977573;28;20039;-77
2023/06/30 02:52:40;;;;;;;47.00;23.65;;;;;;;;;;4972083;28;20027;-78
2023/06/30 02:55:06;;;;;;;45.45;23.15;;;;;;;;;;4976551;28;20035;-78
2023/06/30 02:57:31;;;;;;;50.80;25.17;;;;;;;;;;4971939;28;20046;-77
2023/06/30 02:59:56;;;;;;;50.97;25.65;;;;;;;;;;4969614;28;20033;-79
2023/06/30 03:02:22;;;;;;;43.72;24.77;;;;;;;;;;4974262;28;20034;-77
2023/06/30 03:04:47;;;;;;;45.50;25.83;;;;;;;;;;4977725;28;20037;-77
2023/06/30 03:07:13;;;;;;;47.75;25.15;;;;;;;;;;4982246;28;20038;-80
2023/06/30 03:09:38;;;;;;;43.65;24.08;;;;;;;;;;4980551;28;20107;-78
2023/06/30 03:12:04;;;;;;;51.67;25.20;;;;;;;;;;4969791;28;20034;-78
2023/06/30 03:14:29;;;;;;;45.67;24.23;;;;;;;;;;4982333;28;20046;-78
2023/06/30 03:16:54;;;;;;;45.67;24.35;;;;;;;;;;4978189;28;20054;-80
2023/06/30 03:19:20;;;;;;;49.28;25.27;;;;;;;;;;4979208;28;20090;-81
2023/06/30 03:21:45;;;;;;;44.65;25.17;;;;;;;;;;4973890;28;20465;-78
2023/06/30 03:24:10;;;;;;;46.45;24.70;;;;;;;;;;4981585;28;20118;-78
2023/06/30 03:26:35;;;;;;;50.35;25.75;;;;;;;;;;5001046;28;20029;-78
2023/06/30 03:29:01;;;;;;;53.35;28.35;;;;;;;;;;4987669;28;20046;-78
2023/06/30 03:31:27;;;;;;;53.03;23.92;;;;;;;;;;4990496;28;20576;-78
2023/06/30 03:33:52;;;;;;;45.13;25.30;;;;;;;;;;4975044;28;20042;-77
2023/06/30 03:36:17;;;;;;;47.78;25.67;;;;;;;;;;4980797;28;20053;-77
2023/06/30 03:38:43;;;;;;;44.20;22.38;;;;;;;;;;4973622;28;20018;-77
2023/06/30 03:41:08;;;;;;;43.65;24.35;;;;;;;;;;4972801;28;20046;-79
2023/06/30 03:43:34;;;;;;;50.10;24.85;;;;;;;;;;4970745;28;20041;-77
2023/06/30 03:45:59;;;;;;;51.67;25.58;;;;;;;;;;4974753;28;20063;-79
2023/06/30 03:48:24;;;;;;;49.38;24.40;;;;;;;;;;4973952;28;20497;-79
2023/06/30 03:50:53;;;;;;;45.40;23.63;;;;;;;;;;4976239;28;20053;-80
2023/06/30 03:53:19;;;;;;;48.65;25.17;;;;;;;;;;4973592;28;20142;-79
2023/06/30 03:55:44;;;;;;;44.95;23.63;;;;;;;;;;4974382;28;20117;-79
2023/06/30 03:58:10;;;;;;;43.67;23.33;;;;;;;;;;4975618;28;20062;-80
2023/06/30 04:00:35;;;;;;;43.15;23.90;;;;;;;;;;4974892;28;20047;-79
2023/06/30 04:03:00;;;;;;;40.17;22.10;;;;;;;;;;4967659;28;20031;-79
2023/06/30 04:05:26;;;;;;;47.80;22.75;;;;;;;;;;4975491;28;20042;-80
2023/06/30 04:07:51;;;;;;;44.15;23.23;;;;;;;;;;4977446;28;20112;-79
2023/06/30 04:10:16;;;;;;;43.38;23.40;;;;;;;;;;4970265;28;20035;-79
2023/06/30 04:12:42;;;;;;;43.72;23.73;;;;;;;;;;4971998;28;20050;-79
2023/06/30 04:15:10;;;;;;;41.05;23.52;;;;;;;;;;4965344;28;20046;-79
2023/06/30 04:17:36;;;;;;;37.72;20.85;;;;;;;;;;4972513;28;20037;-78
2023/06/30 04:20:03;;;;;;;39.90;21.70;;;;;;;;;;4989866;28;20394;-79
2023/06/30 04:22:29;;;;;;;37.38;21.05;;;;;;;;;;4974095;28;20061;-78
2023/06/30 04:24:54;;;;;;;38.60;19.85;;;;;;;;;;4969165;28;20039;-79
2023/06/30 04:27:19;;;;;;;37.67;21.10;;;;;;;;;;4973705;28;20058;-78
2023/06/30 04:29:44;;;;;;;37.72;21.13;;;;;;;;;;4973830;28;20029;-78
2023/06/30 04:32:10;;;;;;;37.28;21.27;;;;;;;;;;4976118;28;20039;-79
2023/06/30 04:34:35;;;;;;;44.95;21.10;;;;;;;;;;4971531;28;20031;-78
2023/06/30 04:37:00;;;;;;;37.20;20.75;;;;;;;;;;4976536;28;20046;-78
2023/06/30 04:39:26;;;;;;;41.97;21.25;;;;;;;;;;4972777;28;20043;-78
2023/06/30 04:41:51;;;;;;;42.03;21.75;;;;;;;;;;4979433;28;20082;-78
2023/06/30 04:44:17;;;;;;;35.17;19.85;;;;;;;;;;4975633;28;20051;-78
2023/06/30 04:46:42;;;;;;;37.33;20.48;;;;;;;;;;4973557;28;20444;-79
2023/06/30 04:49:07;;;;;;;33.15;19.08;;;;;;;;;;4973307;28;20117;-78
2023/06/30 04:51:33;;;;;;;37.35;20.95;;;;;;;;;;4972432;28;20039;-79
2023/06/30 04:53:59;;;;;;;39.70;23.08;;;;;;;;;;4973230;28;20081;-79
2023/06/30 04:56:25;;;;;;;39.17;22.27;;;;;;;;;;4974505;28;20069;-78
2023/06/30 04:58:51;;;;;;;42.13;22.13;;;;;;;;;;4972292;28;20464;-79
2023/06/30 05:01:17;;;;;;;39.97;22.00;;;;;;;;;;4972964;28;20035;-79
2023/06/30 05:03:42;;;;;;;45.80;22.00;;;;;;;;;;4971897;28;20039;-78
2023/06/30 05:06:08;;;;;;;40.28;23.35;;;;;;;;;;4971636;28;20056;-78
2023/06/30 05:08:33;;;;;;;44.42;23.13;;;;;;;;;;4976674;28;20046;-78
2023/06/30 05:10:58;;;;;;;45.75;22.67;;;;;;;;;;4971355;28;20062;-79
2023/06/30 05:13:25;;;;;;;34.50;20.05;;;;;;;;;;4974424;28;20417;-78
2023/06/30 05:15:51;;;;;;;43.20;22.35;;;;;;;;;;4983363;28;20045;-79
2023/06/30 05:18:16;;;;;;;41.17;22.33;;;;;;;;;;4973132;28;20121;-78
2023/06/30 05:20:41;;;;;;;36.38;21.50;;;;;;;;;;4978943;28;20106;-78
2023/06/30 05:23:07;;;;;;;36.03;21.42;;;;;;;;;;4975616;28;20066;-78
2023/06/30 05:25:32;;;;;;;34.53;20.52;;;;;;;;;;4968422;28;20034;-78
2023/06/30 05:27:57;;;;;;;35.20;20.45;;;;;;;;;;4968498;28;20035;-77
2023/06/30 05:30:22;;;;;;;34.83;20.63;;;;;;;;;;4974039;28;20046;-79
2023/06/30 05:32:48;;;;;;;37.17;21.25;;;;;;;;;;4976377;28;20058;-78
2023/06/30 05:35:13;;;;;;;36.15;20.65;;;;;;;;;;4978154;28;20031;-78
2023/06/30 05:37:39;;;;;;;39.08;20.77;;;;;;;;;;4978783;28;20130;-78
2023/06/30 05:40:05;;;;;;;40.78;21.27;;;;;;;;;;4972808;28;20122;-77
2023/06/30 05:42:30;;;;;;;38.92;20.95;;;;;;;;;;4975800;28;20046;-78
2023/06/30 05:44:55;;;;;;;37.40;20.98;;;;;;;;;;4975418;28;20486;-78
2023/06/30 05:47:20;;;;;;;35.92;19.65;;;;;;;;;;4980571;28;20035;-77
2023/06/30 05:49:46;;;;;;;35.95;19.98;;;;;;;;;;4975073;28;20039;-78
2023/06/30 05:52:11;;;;;;;39.33;21.25;;;;;;;;;;4974821;28;20039;-76
2023/06/30 05:54:37;;;;;;;41.50;20.95;;;;;;;;;;4975625;28;20134;-78
2023/06/30 05:57:02;;;;;;;37.83;20.10;;;;;;;;;;4976637;28;20023;-79
2023/06/30 05:59:28;;;;;;;37.20;20.38;;;;;;;;;;4976229;28;20074;-78
2023/06/30 06:01:54;;;;;;;41.08;21.27;;;;;;;;;;4972790;28;20038;-78
2023/06/30 06:04:19;;;;;;;39.88;20.85;;;;;;;;;;4972372;28;20039;-76
2023/06/30 06:06:45;;;;;;;38.10;20.65;;;;;;;;;;4971117;28;20042;-80
2023/06/30 06:09:10;;;;;;;37.13;21.13;;;;;;;;;;4973003;28;20391;-78
2023/06/30 06:11:36;;;;;;;37.72;20.75;;;;;;;;;;4970707;28;20043;-77
2023/06/30 06:14:01;;;;;;;39.55;21.08;;;;;;;;;;4974285;28;20038;-78
2023/06/30 06:16:26;;;;;;;56.65;21.17;;;;;;;;;;4971902;28;20030;-78
2023/06/30 06:18:52;;;;;;;41.85;20.55;;;;;;;;;;4967915;28;20042;-78
2023/06/30 06:21:18;;;;;;;43.20;22.02;;;;;;;;;;4969399;28;20453;-79
2023/06/30 06:23:43;;;;;;;35.22;19.70;;;;;;;;;;4975109;28;20486;-78
2023/06/30 06:26:09;;;;;;;35.45;20.13;;;;;;;;;;4976851;28;20039;-78
2023/06/30 06:28:34;;;;;;;36.13;20.35;;;;;;;;;;4991785;28;20046;-78
2023/06/30 06:30:59;;;;;;;36.35;19.83;;;;;;;;;;4978873;28;20031;-77
2023/06/30 06:33:24;;;;;;;37.42;20.13;;;;;;;;;;4981276;28;20046;-77
2023/06/30 06:35:51;;;;;;;32.78;19.33;;;;;;;;;;5000454;28;20049;-77
2023/06/30 06:38:17;;;;;;;33.63;18.92;;;;;;;;;;4985621;28;20050;-77
2023/06/30 06:40:44;;;;;;;34.55;19.65;;;;;;;;;;4983403;28;20037;-77
2023/06/30 06:43:09;;;;;;;35.15;19.65;;;;;;;;;;4983584;28;20039;-77
2023/06/30 06:45:34;;;;;;;34.25;19.10;;;;;;;;;;4976417;28;20053;-77
2023/06/30 06:48:21;;;;;;;35.60;20.23;;;;;;;;;;4975801;28;20477;-77
2023/06/30 06:50:55;;;;;;;31.88;18.98;;;;;;;;;;4975906;28;20043;-78
2023/06/30 06:53:23;;;;;;;34.63;19.27;;;;;;;;;;4968301;28;20067;-78
2023/06/30 06:55:50;;;;;;;34.42;19.00;;;;;;;;;;4977800;28;20042;-77
2023/06/30 06:58:15;;;;;;;30.08;18.02;;;;;;;;;;4966807;28;20042;-78
2023/06/30 07:00:42;;;;;;;37.17;19.25;;;;;;;;;;4973611;28;20563;-78
2023/06/30 07:03:07;;;;;;;37.83;18.15;;;;;;;;;;4972433;28;20061;-78
2023/06/30 07:05:32;;;;;;;34.45;18.50;;;;;;;;;;4999912;28;20070;-77
2023/06/30 07:07:57;;;;;;;31.40;18.27;;;;;;;;;;4975376;28;20035;-77
2023/06/30 07:10:23;;;;;;;28.10;17.63;;;;;;;;;;4974194;28;20038;-77
2023/06/30 07:12:49;;;;;;;29.25;17.25;;;;;;;;;;4973251;28;20035;-80
2023/06/30 07:15:14;;;;;;;31.67;16.85;;;;;;;;;;4968395;28;20027;-77
2023/06/30 07:17:39;;;;;;;29.40;16.67;;;;;;;;;;4981904;28;20031;-77
2023/06/30 07:20:05;;;;;;;27.95;16.95;;;;;;;;;;4981493;28;20069;-77
2023/06/30 07:22:31;;;;;;;30.25;17.38;;;;;;;;;;4971848;28;20466;-77
2023/06/30 07:24:56;;;;;;;27.55;16.35;;;;;;;;;;4976704;28;20043;-77
2023/06/30 07:27:22;;;;;;;27.38;17.33;;;;;;;;;;4969307;28;20093;-77
2023/06/30 07:29:49;;;;;;;30.02;17.55;;;;;;;;;;4973688;28;20049;-77
2023/06/30 07:32:15;;;;;;;27.65;16.77;;;;;;;;;;4978499;28;20097;-77
2023/06/30 07:34:40;;;;;;;28.88;16.65;;;;;;;;;;4975203;28;20030;-78
2023/06/30 07:37:07;;;;;;;32.05;17.17;;;;;;;;;;4984191;28;20062;-77
2023/06/30 07:39:33;;;;;;;27.58;16.90;;;;;;;;;;4973047;28;20043;-77
2023/06/30 07:41:58;;;;;;;26.75;16.00;;;;;;;;;;4987996;28;20038;-77
2023/06/30 07:44:24;;;;;;;28.42;17.30;;;;;;;;;;4993008;28;20215;-77
2023/06/30 07:46:49;;;;;;;25.63;15.25;;;;;;;;;;4972161;28;20026;-77
2023/06/30 07:49:14;;;;;;;24.48;14.85;;;;;;;;;;4977957;28;20035;-78
2023/06/30 07:51:40;;;;;;;21.20;13.85;;;;;;;;;;4965719;28;20070;-78
2023/06/30 07:54:07;;;;;;;24.23;14.52;;;;;;;;;;4963100;28;20027;-77
2023/06/30 07:56:32;;;;;;;24.65;13.65;;;;;;;;;;4964524;28;20413;-77
2023/06/30 07:58:58;;;;;;;20.10;13.23;;;;;;;;;;4973056;28;20039;-77
2023/06/30 08:01:23;;;;;;;23.48;14.57;;;;;;;;;;4969109;28;20314;-77
2023/06/30 08:03:48;;;;;;;26.77;14.85;;;;;;;;;;4967076;28;20070;-77
2023/06/30 08:06:14;;;;;;;34.17;15.30;;;;;;;;;;4967569;28;20047;-77
2023/06/30 08:08:39;;;;;;;25.08;15.77;;;;;;;;;;4968857;28;20111;-77
2023/06/30 08:11:04;;;;;;;26.83;15.95;;;;;;;;;;4969355;28;20051;-77
2023/06/30 08:13:29;;;;;;;28.17;16.23;;;;;;;;;;4987300;28;20549;-77
2023/06/30 08:15:55;;;;;;;25.85;15.75;;;;;;;;;;4968959;28;20035;-77
2023/06/30 08:18:20;;;;;;;24.92;15.68;;;;;;;;;;4969534;28;20409;-78
2023/06/30 08:20:46;;;;;;;32.58;16.38;;;;;;;;;;4970181;28;20105;-78
2023/06/30 08:23:12;;;;;;;25.30;15.43;;;;;;;;;;4969400;28;20109;-78
2023/06/30 08:25:37;;;;;;;23.42;15.23;;;;;;;;;;4970612;28;20046;-78
2023/06/30 08:28:03;;;;;;;25.45;15.40;;;;;;;;;;4969522;28;20051;-78
2023/06/30 08:30:28;;;;;;;31.05;15.55;;;;;;;;;;4972050;28;20050;-77
2023/06/30 08:32:54;;;;;;;28.17;15.48;;;;;;;;;;4970759;28;20930;-78
2023/06/30 08:35:19;;;;;;;26.92;15.85;;;;;;;;;;4974751;28;20089;-78
2023/06/30 08:37:45;;;;;;;27.60;16.77;;;;;;;;;;4981056;28;20043;-78
2023/06/30 08:40:10;;;;;;;24.80;15.32;;;;;;;;;;4988535;28;20035;-79
2023/06/30 08:42:40;;;;;;;25.50;15.95;;;;;;;;;;4972437;28;20482;-79
2023/06/30 08:45:06;;;;;;;26.42;16.17;;;;;;;;;;4972078;28;20026;-79
2023/06/30 08:47:34;;;;;;;30.00;15.75;;;;;;;;;;4973674;28;20023;-77
2023/06/30 08:50:00;;;;;;;37.88;16.73;;;;;;;;;;4963210;28;20163;-76
2023/06/30 08:52:25;;;;;;;38.97;16.85;;;;;;;;;;4964707;28;20062;-76
2023/06/30 08:54:51;;;;;;;40.10;16.63;;;;;;;;;;4967596;28;20039;-75
2023/06/30 08:57:17;;;;;;;27.23;15.25;;;;;;;;;;4969954;28;20014;-75
2023/06/30 08:59:43;;;;;;;27.15;16.10;;;;;;;;;;4967633;28;20027;-79
2023/06/30 09:02:10;;;;;;;40.05;16.35;;;;;;;;;;4966958;28;20045;-77
2023/06/30 09:04:37;;;;;;;24.85;15.30;;;;;;;;;;4968219;28;20035;-76
2023/06/30 09:07:06;;;;;;;24.25;14.82;;;;;;;;;;4966963;28;20035;-80
2023/06/30 09:09:37;;;;;;;27.05;14.77;;;;;;;;;;4978522;28;20053;-80
2023/06/30 09:12:04;;;;;;;26.80;15.98;;;;;;;;;;4979075;28;20038;-78
2023/06/30 09:14:33;;;;;;;22.45;13.52;;;;;;;;;;4977993;28;20034;-78
2023/06/30 09:17:00;;;;;;;23.27;13.98;;;;;;;;;;4969491;28;20058;-79
2023/06/30 09:19:25;;;;;;;26.65;16.15;;;;;;;;;;4978374;28;20501;-79
2023/06/30 09:21:51;;;;;;;26.48;14.85;;;;;;;;;;4987091;28;20034;-79
2023/06/30 09:24:17;;;;;;;27.77;15.88;;;;;;;;;;4976004;28;20090;-79
2023/06/30 09:26:44;;;;;;;25.85;15.13;;;;;;;;;;4978018;28;20027;-78
2023/06/30 09:29:10;;;;;;;27.65;16.73;;;;;;;;;;4980018;28;20041;-78
2023/06/30 09:31:35;;;;;;;30.33;17.70;;;;;;;;;;4972926;28;20043;-78
2023/06/30 09:34:13;;;;;;;26.38;15.68;;;;;;;;;;4970519;28;20061;-78
2023/06/30 09:36:49;;;;;;;23.63;15.23;;;;;;;;;;4975718;28;20086;-78
2023/06/30 09:39:15;;;;;;;26.83;15.57;;;;;;;;;;4977092;28;20030;-77
2023/06/30 09:41:45;;;;;;;26.70;15.23;;;;;;;;;;4977156;28;20426;-78
2023/06/30 09:44:11;;;;;;;27.83;15.57;;;;;;;;;;4974193;28;20070;-78
2023/06/30 09:46:49;;;;;;;27.48;15.18;;;;;;;;;;4976187;28;20403;-77
2023/06/30 09:49:32;;;;;;;25.25;15.05;;;;;;;;;;4975227;28;20042;-77
2023/06/30 09:52:05;;;;;;;25.25;15.25;;;;;;;;;;4968452;28;20406;-77
2023/06/30 09:54:31;;;;;;;23.10;14.65;;;;;;;;;;4973559;28;20073;-77
2023/06/30 09:57:00;;;;;;;24.10;14.48;;;;;;;;;;4975209;28;20089;-77
2023/06/30 09:59:27;;;;;;;23.98;14.65;;;;;;;;;;4972369;28;20441;-78
2023/06/30 10:01:53;;;;;;;24.35;14.30;;;;;;;;;;4966547;28;20043;-77
2023/06/30 10:04:18;;;;;;;20.80;13.90;;;;;;;;;;4973556;28;20107;-77
2023/06/30 10:06:46;;;;;;;23.00;14.48;;;;;;;;;;4972424;28;20497;-77
2023/06/30 10:09:13;;;;;;;23.00;14.20;;;;;;;;;;4973863;28;20036;-78
2023/06/30 10:11:42;;;;;;;28.00;14.80;;;;;;;;;;4975237;28;20035;-78
2023/06/30 10:14:10;;;;;;;22.23;13.10;;;;;;;;;;4969264;28;20047;-78
2023/06/30 10:16:36;;;;;;;21.20;13.02;;;;;;;;;;4970741;28;20421;-77
2023/06/30 10:19:03;;;;;;;24.48;13.63;;;;;;;;;;4969475;28;20070;-78
2023/06/30 10:21:29;;;;;;;17.48;12.35;;;;;;;;;;4971780;28;20039;-77
2023/06/30 10:23:54;;;;;;;21.60;13.23;;;;;;;;;;4973574;28;20022;-78
2023/06/30 10:26:21;;;;;;;21.33;12.43;;;;;;;;;;4971135;28;20569;-78
2023/06/30 10:28:47;;;;;;;24.83;12.48;;;;;;;;;;4974410;28;20041;-78
2023/06/30 10:31:13;;;;;;;22.15;12.95;;;;;;;;;;4975061;28;20224;-78
2023/06/30 10:33:39;;;;;;;20.35;12.93;;;;;;;;;;4969493;28;20042;-77
2023/06/30 10:36:06;;;;;;;23.30;12.38;;;;;;;;;;4973811;28;20037;-77
2023/06/30 10:38:31;;;;;;;20.10;12.65;;;;;;;;;;4972395;28;20089;-77
2023/06/30 10:41:17;;;;;;;26.15;13.57;;;;;;;;;;4971974;28;20445;-78
2023/06/30 10:44:08;;;;;;;22.55;13.20;;;;;;;;;;4971670;28;20031;-77
2023/06/30 10:46:44;;;;;;;20.10;12.50;;;;;;;;;;4971167;28;20039;-77
2023/06/30 10:49:25;;;;;;;21.52;13.40;;;;;;;;;;4969977;28;20049;-77
2023/06/30 10:51:51;;;;;;;17.95;12.18;;;;;;;;;;4971867;28;20046;-77
2023/06/30 10:54:25;;;;;;;22.70;12.70;;;;;;;;;;4967939;28;20030;-77
2023/06/30 10:56:51;;;;;;;20.48;12.38;;;;;;;;;;4964092;28;20035;-77
2023/06/30 10:59:23;;;;;;;20.25;12.38;;;;;;;;;;4971796;28;20035;-76
2023/06/30 11:02:13;;;;;;;22.88;12.68;;;;;;;;;;4968235;28;20066;-77
2023/06/30 11:04:42;;;;;;;23.38;13.18;;;;;;;;;;4969539;28;20161;-77
2023/06/30 11:07:10;;;;;;;20.05;13.18;;;;;;;;;;4968468;28;20035;-78
2023/06/30 11:09:48;;;;;;;19.30;12.43;;;;;;;;;;4968815;28;20040;-77
2023/06/30 11:12:18;;;;;;;18.38;12.95;;;;;;;;;;4970434;28;20038;-77
2023/06/30 11:14:56;;;;;;;21.60;13.18;;;;;;;;;;4965913;28;20023;-77
2023/06/30 11:17:42;;;;;;;18.88;12.77;;;;;;;;;;4978513;23;20075;-75
2023/06/30 11:20:12;;;;;;;21.58;13.60;;;;;;;;;;4943504;28;20098;-75
2023/06/30 11:22:39;;;;;;;27.90;13.73;;;;;;;;;;4953046;29;20042;-75
2023/06/30 11:25:10;;;;;;;19.15;13.00;;;;;;;;;;4954432;28;20039;-75
2023/06/30 11:27:37;;;;;;;19.67;12.63;;;;;;;;;;4946040;28;20032;-75
2023/06/30 11:30:03;;;;;;;20.95;13.40;;;;;;;;;;4933520;29;20031;-75
2023/06/30 11:32:30;;;;;;;17.85;12.02;;;;;;;;;;4933643;29;20035;-76
2023/06/30 11:34:58;;;;;;;20.88;12.73;;;;;;;;;;4943501;28;20437;-75
2023/06/30 11:37:24;;;;;;;19.15;12.18;;;;;;;;;;4954186;28;20031;-75
2023/06/30 11:39:57;;;;;;;21.08;12.35;;;;;;;;;;4935619;28;20035;-75
2023/06/30 11:42:23;;;;;;;20.73;12.43;;;;;;;;;;4931417;29;20484;-75
2023/06/30 11:44:49;;;;;;;16.95;11.00;;;;;;;;;;4946782;29;20034;-76
2023/06/30 11:47:18;;;;;;;20.67;10.13;;;;;;;;;;4934733;29;20039;-75
2023/06/30 11:49:48;;;;;;;13.90;10.15;;;;;;;;;;4935133;28;20072;-75
2023/06/30 11:52:14;;;;;;;21.10;10.82;;;;;;;;;;4934888;29;20039;-76
2023/06/30 11:54:40;;;;;;;17.95;10.55;;;;;;;;;;4934991;29;20069;-75
2023/06/30 11:57:05;;;;;;;19.17;10.60;;;;;;;;;;4934926;29;20454;-75
2023/06/30 11:59:31;;;;;;;14.80;10.30;;;;;;;;;;4935372;29;20389;-76
2023/06/30 12:01:57;;;;;;;15.75;9.52;;;;;;;;;;4934587;29;20484;-75
2023/06/30 12:04:22;;;;;;;12.10;7.90;;;;;;;;;;4934366;28;20028;-75
2023/06/30 12:06:48;;;;;;;12.05;8.13;;;;;;;;;;4934192;28;20455;-75
2023/06/30 12:09:17;;;;;;;12.40;7.70;;;;;;;;;;4935022;28;20101;-76
2023/06/30 12:11:44;;;;;;;9.50;7.15;;;;;;;;;;4934837;29;20435;-75
2023/06/30 12:14:11;;;;;;;13.40;7.80;;;;;;;;;;4934620;28;20419;-75
2023/06/30 12:16:53;;;;;;;10.65;7.57;;;;;;;;;;4933935;28;20119;-75
2023/06/30 12:19:28;;;;;;;11.93;8.07;;;;;;;;;;4938963;28;20047;-76
2023/06/30 12:21:55;;;;;;;11.98;8.57;;;;;;;;;;4923361;29;20402;-75
2023/06/30 12:24:22;;;;;;;17.40;10.48;;;;;;;;;;4915990;29;20024;-75
2023/06/30 12:26:49;;;;;;;15.10;10.05;;;;;;;;;;4916203;29;20042;-75
2023/06/30 12:29:16;;;;;;;12.13;8.23;;;;;;;;;;4941812;29;20036;-75
2023/06/30 12:31:42;;;;;;;14.30;8.27;;;;;;;;;;4954262;28;20110;-75
2023/06/30 12:34:07;;;;;;;12.13;8.50;;;;;;;;;;4953841;28;20126;-75
2023/06/30 12:36:32;;;;;;;13.90;9.50;;;;;;;;;;4953716;28;20031;-75
2023/06/30 12:38:58;;;;;;;13.18;8.70;;;;;;;;;;4954450;29;20039;-75
2023/06/30 12:41:23;;;;;;;13.75;9.15;;;;;;;;;;4954113;28;20028;-75
2023/06/30 12:43:48;;;;;;;14.90;9.35;;;;;;;;;;4953335;28;20060;-75
2023/06/30 12:46:14;;;;;;;14.57;9.10;;;;;;;;;;4943051;29;20036;-76
2023/06/30 12:48:40;;;;;;;14.05;9.95;;;;;;;;;;4942101;28;20027;-76
2023/06/30 12:51:07;;;;;;;15.13;9.00;;;;;;;;;;4934179;29;20118;-76
2023/06/30 12:53:32;;;;;;;14.90;9.48;;;;;;;;;;4934311;29;20031;-76
2023/06/30 12:55:58;;;;;;;12.63;8.55;;;;;;;;;;4948943;28;20470;-76
2023/06/30 12:58:23;;;;;;;15.57;10.50;;;;;;;;;;4933255;29;20040;-76
2023/06/30 13:00:49;;;;;;;16.58;10.52;;;;;;;;;;4943076;29;20443;-76
2023/06/30 13:03:14;;;;;;;18.83;11.57;;;;;;;;;;4940003;28;20022;-75
2023/06/30 13:05:40;;;;;;;20.73;11.68;;;;;;;;;;4941943;29;20098;-76
2023/06/30 13:08:05;;;;;;;17.42;11.75;;;;;;;;;;4933611;29;20039;-75
2023/06/30 13:10:30;;;;;;;17.25;12.00;;;;;;;;;;4933843;29;20067;-75
2023/06/30 13:12:56;;;;;;;15.50;10.10;;;;;;;;;;4941714;28;20413;-76
2023/06/30 13:15:22;;;;;;;18.10;10.93;;;;;;;;;;4932309;29;20067;-76
2023/06/30 13:17:47;;;;;;;17.25;10.88;;;;;;;;;;4933955;29;20114;-75
2023/06/30 13:20:13;;;;;;;16.52;10.10;;;;;;;;;;4933407;29;20466;-76
2023/06/30 13:22:38;;;;;;;15.68;9.95;;;;;;;;;;4933221;29;20063;-77
2023/06/30 13:25:04;;;;;;;16.80;10.30;;;;;;;;;;4932633;28;20114;-76
2023/06/30 13:27:29;;;;;;;16.25;10.52;;;;;;;;;;4927849;29;21537;-76
2023/06/30 13:29:56;;;;;;;14.98;11.05;;;;;;;;;;4934595;29;20035;-76
2023/06/30 13:32:21;;;;;;;14.05;9.73;;;;;;;;;;4929683;29;20287;-76
2023/06/30 13:34:47;;;;;;;15.73;10.30;;;;;;;;;;4926952;29;20131;-76
2023/06/30 13:37:13;;;;;;;19.17;11.00;;;;;;;;;;4937315;28;20413;-76
2023/06/30 13:39:39;;;;;;;15.60;9.95;;;;;;;;;;4932550;29;20050;-76
2023/06/30 13:42:05;;;;;;;15.52;10.15;;;;;;;;;;4925295;29;20371;-76
2023/06/30 13:44:32;;;;;;;17.17;11.00;;;;;;;;;;4926964;29;20035;-76
2023/06/30 13:46:57;;;;;;;19.77;11.48;;;;;;;;;;4930032;29;20060;-76
2023/06/30 13:49:22;;;;;;;20.80;11.90;;;;;;;;;;4926028;28;20036;-76
2023/06/30 13:51:49;;;;;;;20.88;12.52;;;;;;;;;;4930413;29;20094;-76
2023/06/30 13:54:15;;;;;;;16.27;9.70;;;;;;;;;;4925642;29;20061;-76
2023/06/30 13:56:40;;;;;;;18.63;10.63;;;;;;;;;;4936127;29;20070;-76
2023/06/30 13:59:06;;;;;;;20.88;13.95;;;;;;;;;;4935208;29;20047;-76
2023/06/30 14:01:31;;;;;;;23.65;14.55;;;;;;;;;;4928553;28;20391;-76
2023/06/30 14:03:56;;;;;;;19.38;13.10;;;;;;;;;;4932428;29;20498;-76
2023/06/30 14:06:21;;;;;;;24.75;13.80;;;;;;;;;;4928055;29;20086;-76
2023/06/30 14:08:47;;;;;;;24.48;13.63;;;;;;;;;;4931832;29;20443;-77
2023/06/30 14:11:14;;;;;;;21.58;13.95;;;;;;;;;;4923644;29;20044;-76
2023/06/30 14:13:40;;;;;;;23.77;13.52;;;;;;;;;;4932337;29;20367;-76
2023/06/30 14:16:05;;;;;;;23.17;13.45;;;;;;;;;;4930140;29;20047;-76